sensor_id;sensor_type;location;lat;lon;timestamp;P1;durP1;ratioP1;P2;durP2;ratioP2
44646;SDS011;56315;-33.902;151.160;2023-04-12T00:01:02;7.55;;;3.30;;
44646;SDS011;56315;-33.902;151.160;2023-04-12T00:03:30;10.07;;;2.65;;
44646;SDS011;56315;-33.902;151.160;2023-04-12T00:06:01;7.38;;;2.88;;
44646;SDS011;56315;-33.902;151.160;2023-04-12T00:08:28;5.43;;;1.98;;
44646;SDS011;56315;-33.902;151.160;2023-04-12T00:11:00;5.63;;;2.40;;
44646;SDS011;56315;-33.902;151.160;2023-04-12T00:13:28;10.52;;;4.75;;
44646;SDS011;56315;-33.902;151.160;2023-04-12T00:15:56;7.90;;;4.05;;
44646;SDS011;56315;-33.902;151.160;2023-04-12T00:18:23;4.78;;;1.90;;
44646;SDS011;56315;-33.902;151.160;2023-04-12T00:20:51;5.95;;;2.45;;
44646;SDS011;56315;-33.902;151.160;2023-04-12T00:23:20;5.60;;;1.92;;
44646;SDS011;56315;-33.902;151.160;2023-04-12T00:25:47;7.97;;;2.38;;
44646;SDS011;56315;-33.902;151.160;2023-04-12T00:28:15;6.68;;;2.10;;
44646;SDS011;56315;-33.902;151.160;2023-04-12T00:30:42;7.22;;;2.00;;
44646;SDS011;56315;-33.902;151.160;2023-04-12T00:33:10;5.70;;;1.80;;
44646;SDS011;56315;-33.902;151.160;2023-04-12T00:35:37;5.10;;;1.92;;
44646;SDS011;56315;-33.902;151.160;2023-04-12T00:38:05;6.20;;;1.80;;
44646;SDS011;56315;-33.902;151.160;2023-04-12T00:40:35;5.75;;;1.88;;
44646;SDS011;56315;-33.902;151.160;2023-04-12T00:43:11;5.80;;;1.90;;
44646;SDS011;56315;-33.902;151.160;2023-04-12T00:45:46;4.40;;;2.03;;
44646;SDS011;56315;-33.902;151.160;2023-04-12T00:48:14;5.85;;;1.73;;
44646;SDS011;56315;-33.902;151.160;2023-04-12T00:50:41;6.55;;;1.60;;
44646;SDS011;56315;-33.902;151.160;2023-04-12T00:53:12;9.65;;;1.90;;
44646;SDS011;56315;-33.902;151.160;2023-04-12T00:55:41;5.32;;;1.63;;
44646;SDS011;56315;-33.902;151.160;2023-04-12T00:58:10;9.13;;;2.17;;
44646;SDS011;56315;-33.902;151.160;2023-04-12T01:00:38;5.10;;;2.17;;
44646;SDS011;56315;-33.902;151.160;2023-04-12T01:03:06;6.28;;;2.00;;
44646;SDS011;56315;-33.902;151.160;2023-04-12T01:05:45;7.35;;;2.10;;
44646;SDS011;56315;-33.902;151.160;2023-04-12T01:08:23;6.25;;;2.38;;
44646;SDS011;56315;-33.902;151.160;2023-04-12T01:13:38;11.27;;;2.63;;
44646;SDS011;56315;-33.902;151.160;2023-04-12T01:18:49;6.90;;;2.42;;
44646;SDS011;56315;-33.902;151.160;2023-04-12T01:21:23;7.25;;;2.22;;
44646;SDS011;56315;-33.902;151.160;2023-04-12T01:24:30;6.68;;;2.33;;
44646;SDS011;56315;-33.902;151.160;2023-04-12T01:30:11;9.25;;;2.97;;
44646;SDS011;56315;-33.902;151.160;2023-04-12T01:32:41;8.32;;;2.58;;
44646;SDS011;56315;-33.902;151.160;2023-04-12T01:35:12;6.00;;;2.03;;
44646;SDS011;56315;-33.902;151.160;2023-04-12T01:37:40;7.88;;;2.38;;
44646;SDS011;56315;-33.902;151.160;2023-04-12T01:40:09;7.13;;;2.13;;
44646;SDS011;56315;-33.902;151.160;2023-04-12T01:42:37;15.88;;;2.83;;
44646;SDS011;56315;-33.902;151.160;2023-04-12T01:45:05;5.38;;;2.47;;
44646;SDS011;56315;-33.902;151.160;2023-04-12T01:47:33;8.52;;;2.60;;
44646;SDS011;56315;-33.902;151.160;2023-04-12T01:52:48;3.10;;;1.80;;
44646;SDS011;56315;-33.902;151.160;2023-04-12T01:55:39;4.00;;;1.40;;
44646;SDS011;56315;-33.902;151.160;2023-04-12T01:58:16;5.57;;;1.50;;
44646;SDS011;56315;-33.902;151.160;2023-04-12T02:00:47;8.02;;;1.75;;
44646;SDS011;56315;-33.902;151.160;2023-04-12T02:03:15;5.80;;;1.70;;
44646;SDS011;56315;-33.902;151.160;2023-04-12T02:05:44;8.20;;;2.00;;
44646;SDS011;56315;-33.902;151.160;2023-04-12T02:08:12;5.90;;;1.65;;
44646;SDS011;56315;-33.902;151.160;2023-04-12T02:10:40;7.20;;;1.65;;
44646;SDS011;56315;-33.902;151.160;2023-04-12T02:13:07;6.60;;;2.00;;
44646;SDS011;56315;-33.902;151.160;2023-04-12T02:15:34;8.15;;;1.92;;
44646;SDS011;56315;-33.902;151.160;2023-04-12T02:18:03;5.88;;;2.13;;
44646;SDS011;56315;-33.902;151.160;2023-04-12T02:20:30;5.68;;;2.00;;
44646;SDS011;56315;-33.902;151.160;2023-04-12T02:22:57;5.45;;;1.60;;
44646;SDS011;56315;-33.902;151.160;2023-04-12T02:25:25;6.88;;;2.10;;
44646;SDS011;56315;-33.902;151.160;2023-04-12T02:27:52;7.25;;;2.20;;
44646;SDS011;56315;-33.902;151.160;2023-04-12T02:30:19;9.68;;;2.58;;
44646;SDS011;56315;-33.902;151.160;2023-04-12T02:32:48;6.35;;;2.17;;
44646;SDS011;56315;-33.902;151.160;2023-04-12T02:35:16;8.85;;;2.60;;
44646;SDS011;56315;-33.902;151.160;2023-04-12T02:37:44;6.97;;;2.17;;
44646;SDS011;56315;-33.902;151.160;2023-04-12T02:40:13;5.90;;;1.92;;
44646;SDS011;56315;-33.902;151.160;2023-04-12T02:42:43;4.13;;;1.52;;
44646;SDS011;56315;-33.902;151.160;2023-04-12T02:45:11;8.85;;;1.83;;
44646;SDS011;56315;-33.902;151.160;2023-04-12T02:47:42;7.13;;;1.80;;
44646;SDS011;56315;-33.902;151.160;2023-04-12T02:50:10;6.60;;;1.90;;
44646;SDS011;56315;-33.902;151.160;2023-04-12T02:52:38;3.65;;;1.60;;
44646;SDS011;56315;-33.902;151.160;2023-04-12T02:55:05;9.70;;;1.98;;
44646;SDS011;56315;-33.902;151.160;2023-04-12T02:57:33;7.05;;;1.95;;
44646;SDS011;56315;-33.902;151.160;2023-04-12T03:00:01;8.32;;;2.15;;
44646;SDS011;56315;-33.902;151.160;2023-04-12T03:02:41;3.03;;;1.67;;
44646;SDS011;56315;-33.902;151.160;2023-04-12T03:05:11;5.07;;;1.45;;
44646;SDS011;56315;-33.902;151.160;2023-04-12T03:07:39;5.32;;;1.48;;
44646;SDS011;56315;-33.902;151.160;2023-04-12T03:10:07;3.55;;;1.58;;
44646;SDS011;56315;-33.902;151.160;2023-04-12T03:12:38;5.25;;;1.67;;
44646;SDS011;56315;-33.902;151.160;2023-04-12T03:15:05;4.45;;;1.48;;
44646;SDS011;56315;-33.902;151.160;2023-04-12T03:17:33;4.25;;;1.67;;
44646;SDS011;56315;-33.902;151.160;2023-04-12T03:20:08;3.63;;;1.35;;
44646;SDS011;56315;-33.902;151.160;2023-04-12T03:22:35;3.55;;;1.80;;
44646;SDS011;56315;-33.902;151.160;2023-04-12T03:25:06;3.17;;;1.52;;
44646;SDS011;56315;-33.902;151.160;2023-04-12T03:27:34;6.78;;;5.53;;
44646;SDS011;56315;-33.902;151.160;2023-04-12T03:30:01;2.53;;;1.35;;
44646;SDS011;56315;-33.902;151.160;2023-04-12T03:32:29;4.38;;;1.40;;
44646;SDS011;56315;-33.902;151.160;2023-04-12T03:34:56;6.60;;;1.58;;
44646;SDS011;56315;-33.902;151.160;2023-04-12T03:37:23;3.67;;;1.58;;
44646;SDS011;56315;-33.902;151.160;2023-04-12T03:39:50;4.30;;;1.48;;
44646;SDS011;56315;-33.902;151.160;2023-04-12T03:42:18;3.67;;;1.40;;
44646;SDS011;56315;-33.902;151.160;2023-04-12T03:44:45;5.55;;;1.52;;
44646;SDS011;56315;-33.902;151.160;2023-04-12T03:47:13;6.75;;;2.47;;
44646;SDS011;56315;-33.902;151.160;2023-04-12T03:49:40;7.70;;;1.60;;
44646;SDS011;56315;-33.902;151.160;2023-04-12T03:52:08;2.83;;;1.48;;
44646;SDS011;56315;-33.902;151.160;2023-04-12T03:54:35;6.07;;;1.40;;
44646;SDS011;56315;-33.902;151.160;2023-04-12T03:57:02;4.55;;;1.63;;
44646;SDS011;56315;-33.902;151.160;2023-04-12T03:59:30;3.08;;;2.00;;
44646;SDS011;56315;-33.902;151.160;2023-04-12T04:01:57;4.40;;;1.50;;
44646;SDS011;56315;-33.902;151.160;2023-04-12T04:04:26;4.70;;;1.50;;
44646;SDS011;56315;-33.902;151.160;2023-04-12T04:06:53;3.92;;;1.60;;
44646;SDS011;56315;-33.902;151.160;2023-04-12T04:09:21;2.70;;;1.40;;
44646;SDS011;56315;-33.902;151.160;2023-04-12T04:11:48;6.47;;;1.67;;
44646;SDS011;56315;-33.902;151.160;2023-04-12T04:14:16;1.95;;;1.17;;
44646;SDS011;56315;-33.902;151.160;2023-04-12T04:16:43;3.97;;;1.40;;
44646;SDS011;56315;-33.902;151.160;2023-04-12T04:19:11;4.65;;;1.50;;
44646;SDS011;56315;-33.902;151.160;2023-04-12T04:21:38;1.92;;;1.50;;
44646;SDS011;56315;-33.902;151.160;2023-04-12T04:24:06;3.90;;;1.30;;
44646;SDS011;56315;-33.902;151.160;2023-04-12T04:26:36;3.47;;;1.50;;
44646;SDS011;56315;-33.902;151.160;2023-04-12T04:29:03;3.75;;;1.38;;
44646;SDS011;56315;-33.902;151.160;2023-04-12T04:31:31;2.30;;;1.10;;
44646;SDS011;56315;-33.902;151.160;2023-04-12T04:34:02;3.72;;;1.13;;
44646;SDS011;56315;-33.902;151.160;2023-04-12T04:36:33;4.30;;;1.13;;
44646;SDS011;56315;-33.902;151.160;2023-04-12T04:39:02;1.75;;;1.30;;
44646;SDS011;56315;-33.902;151.160;2023-04-12T04:41:29;2.90;;;1.20;;
44646;SDS011;56315;-33.902;151.160;2023-04-12T04:44:07;2.92;;;1.23;;
44646;SDS011;56315;-33.902;151.160;2023-04-12T04:46:37;7.25;;;4.15;;
44646;SDS011;56315;-33.902;151.160;2023-04-12T04:49:05;2.17;;;1.13;;
44646;SDS011;56315;-33.902;151.160;2023-04-12T04:51:32;3.33;;;1.27;;
44646;SDS011;56315;-33.902;151.160;2023-04-12T04:54:01;3.53;;;1.55;;
44646;SDS011;56315;-33.902;151.160;2023-04-12T04:56:28;4.40;;;1.35;;
44646;SDS011;56315;-33.902;151.160;2023-04-12T04:58:57;2.75;;;1.27;;
44646;SDS011;56315;-33.902;151.160;2023-04-12T05:01:24;4.03;;;1.25;;
44646;SDS011;56315;-33.902;151.160;2023-04-12T05:03:52;4.72;;;1.45;;
44646;SDS011;56315;-33.902;151.160;2023-04-12T05:06:20;3.50;;;1.58;;
44646;SDS011;56315;-33.902;151.160;2023-04-12T05:08:47;4.90;;;1.50;;
44646;SDS011;56315;-33.902;151.160;2023-04-12T05:11:14;3.25;;;1.60;;
44646;SDS011;56315;-33.902;151.160;2023-04-12T05:13:41;2.63;;;1.25;;
44646;SDS011;56315;-33.902;151.160;2023-04-12T05:16:09;2.85;;;1.20;;
44646;SDS011;56315;-33.902;151.160;2023-04-12T05:18:36;2.03;;;1.05;;
44646;SDS011;56315;-33.902;151.160;2023-04-12T05:21:04;2.53;;;1.45;;
44646;SDS011;56315;-33.902;151.160;2023-04-12T05:23:35;2.70;;;1.67;;
44646;SDS011;56315;-33.902;151.160;2023-04-12T05:26:06;4.50;;;1.48;;
44646;SDS011;56315;-33.902;151.160;2023-04-12T05:28:33;3.13;;;1.23;;
44646;SDS011;56315;-33.902;151.160;2023-04-12T05:31:01;3.83;;;1.20;;
44646;SDS011;56315;-33.902;151.160;2023-04-12T05:33:28;4.18;;;1.42;;
44646;SDS011;56315;-33.902;151.160;2023-04-12T05:38:21;4.47;;;1.30;;
44646;SDS011;56315;-33.902;151.160;2023-04-12T05:40:49;2.50;;;1.02;;
44646;SDS011;56315;-33.902;151.160;2023-04-12T05:43:16;2.72;;;0.95;;
44646;SDS011;56315;-33.902;151.160;2023-04-12T05:45:43;3.05;;;1.30;;
44646;SDS011;56315;-33.902;151.160;2023-04-12T05:48:10;2.33;;;1.20;;
44646;SDS011;56315;-33.902;151.160;2023-04-12T05:50:38;2.80;;;1.40;;
44646;SDS011;56315;-33.902;151.160;2023-04-12T05:53:05;2.38;;;1.10;;
44646;SDS011;56315;-33.902;151.160;2023-04-12T05:55:33;2.00;;;1.10;;
44646;SDS011;56315;-33.902;151.160;2023-04-12T05:58:00;2.35;;;1.20;;
44646;SDS011;56315;-33.902;151.160;2023-04-12T06:00:27;2.35;;;1.10;;
44646;SDS011;56315;-33.902;151.160;2023-04-12T06:02:54;4.95;;;1.35;;
44646;SDS011;56315;-33.902;151.160;2023-04-12T06:05:26;1.80;;;0.90;;
44646;SDS011;56315;-33.902;151.160;2023-04-12T06:07:53;1.83;;;1.10;;
44646;SDS011;56315;-33.902;151.160;2023-04-12T06:10:20;2.60;;;0.90;;
44646;SDS011;56315;-33.902;151.160;2023-04-12T06:12:48;1.65;;;1.13;;
44646;SDS011;56315;-33.902;151.160;2023-04-12T06:15:15;2.03;;;1.15;;
44646;SDS011;56315;-33.902;151.160;2023-04-12T06:17:44;4.03;;;1.65;;
44646;SDS011;56315;-33.902;151.160;2023-04-12T06:20:11;2.55;;;1.25;;
44646;SDS011;56315;-33.902;151.160;2023-04-12T06:22:40;3.22;;;1.10;;
44646;SDS011;56315;-33.902;151.160;2023-04-12T06:25:07;4.50;;;0.88;;
44646;SDS011;56315;-33.902;151.160;2023-04-12T06:27:34;2.08;;;1.00;;
44646;SDS011;56315;-33.902;151.160;2023-04-12T06:30:02;3.47;;;1.30;;
44646;SDS011;56315;-33.902;151.160;2023-04-12T06:32:29;1.42;;;0.93;;
44646;SDS011;56315;-33.902;151.160;2023-04-12T06:34:56;3.10;;;1.00;;
44646;SDS011;56315;-33.902;151.160;2023-04-12T06:37:24;2.00;;;1.00;;
44646;SDS011;56315;-33.902;151.160;2023-04-12T06:39:51;1.77;;;1.05;;
44646;SDS011;56315;-33.902;151.160;2023-04-12T06:42:18;2.47;;;1.15;;
44646;SDS011;56315;-33.902;151.160;2023-04-12T06:44:46;6.43;;;1.27;;
44646;SDS011;56315;-33.902;151.160;2023-04-12T06:47:13;4.03;;;1.20;;
44646;SDS011;56315;-33.902;151.160;2023-04-12T06:49:40;3.83;;;1.20;;
44646;SDS011;56315;-33.902;151.160;2023-04-12T06:52:08;3.78;;;1.50;;
44646;SDS011;56315;-33.902;151.160;2023-04-12T06:54:35;5.80;;;1.98;;
44646;SDS011;56315;-33.902;151.160;2023-04-12T06:57:07;2.30;;;1.35;;
44646;SDS011;56315;-33.902;151.160;2023-04-12T06:59:35;3.20;;;1.35;;
44646;SDS011;56315;-33.902;151.160;2023-04-12T07:02:03;7.85;;;1.77;;
44646;SDS011;56315;-33.902;151.160;2023-04-12T07:04:31;3.75;;;1.50;;
44646;SDS011;56315;-33.902;151.160;2023-04-12T07:06:58;2.42;;;1.38;;
44646;SDS011;56315;-33.902;151.160;2023-04-12T07:09:26;3.58;;;1.33;;
44646;SDS011;56315;-33.902;151.160;2023-04-12T07:11:57;3.20;;;1.48;;
44646;SDS011;56315;-33.902;151.160;2023-04-12T07:14:25;2.55;;;1.20;;
44646;SDS011;56315;-33.902;151.160;2023-04-12T07:16:53;2.88;;;1.60;;
44646;SDS011;56315;-33.902;151.160;2023-04-12T07:19:20;3.55;;;1.75;;
44646;SDS011;56315;-33.902;151.160;2023-04-12T07:21:47;5.10;;;1.60;;
44646;SDS011;56315;-33.902;151.160;2023-04-12T07:24:15;2.33;;;1.50;;
44646;SDS011;56315;-33.902;151.160;2023-04-12T07:26:42;4.53;;;1.77;;
44646;SDS011;56315;-33.902;151.160;2023-04-12T07:29:10;3.58;;;1.77;;
44646;SDS011;56315;-33.902;151.160;2023-04-12T07:31:37;3.20;;;1.90;;
44646;SDS011;56315;-33.902;151.160;2023-04-12T07:34:05;3.13;;;1.48;;
44646;SDS011;56315;-33.902;151.160;2023-04-12T07:36:32;5.10;;;1.67;;
44646;SDS011;56315;-33.902;151.160;2023-04-12T07:38:59;3.55;;;1.40;;
44646;SDS011;56315;-33.902;151.160;2023-04-12T07:41:27;5.18;;;1.60;;
44646;SDS011;56315;-33.902;151.160;2023-04-12T07:43:54;5.80;;;1.90;;
44646;SDS011;56315;-33.902;151.160;2023-04-12T07:46:21;3.15;;;1.50;;
44646;SDS011;56315;-33.902;151.160;2023-04-12T07:48:50;5.05;;;1.75;;
44646;SDS011;56315;-33.902;151.160;2023-04-12T07:51:17;3.33;;;1.75;;
44646;SDS011;56315;-33.902;151.160;2023-04-12T07:53:44;2.58;;;1.33;;
44646;SDS011;56315;-33.902;151.160;2023-04-12T07:56:13;2.38;;;1.40;;
44646;SDS011;56315;-33.902;151.160;2023-04-12T07:58:40;6.80;;;2.05;;
44646;SDS011;56315;-33.902;151.160;2023-04-12T08:01:10;4.38;;;1.42;;
44646;SDS011;56315;-33.902;151.160;2023-04-12T08:03:38;2.95;;;1.30;;
44646;SDS011;56315;-33.902;151.160;2023-04-12T08:06:05;5.13;;;1.80;;
44646;SDS011;56315;-33.902;151.160;2023-04-12T08:08:33;2.92;;;1.60;;
44646;SDS011;56315;-33.902;151.160;2023-04-12T08:11:00;4.10;;;1.98;;
44646;SDS011;56315;-33.902;151.160;2023-04-12T08:13:29;3.60;;;2.30;;
44646;SDS011;56315;-33.902;151.160;2023-04-12T08:15:57;6.13;;;3.83;;
44646;SDS011;56315;-33.902;151.160;2023-04-12T08:18:24;6.68;;;3.63;;
44646;SDS011;56315;-33.902;151.160;2023-04-12T08:20:54;8.07;;;4.35;;
44646;SDS011;56315;-33.902;151.160;2023-04-12T08:23:22;6.43;;;3.35;;
44646;SDS011;56315;-33.902;151.160;2023-04-12T08:25:51;5.47;;;2.60;;
44646;SDS011;56315;-33.902;151.160;2023-04-12T08:28:27;3.67;;;2.13;;
44646;SDS011;56315;-33.902;151.160;2023-04-12T08:30:55;3.33;;;1.98;;
44646;SDS011;56315;-33.902;151.160;2023-04-12T08:33:23;5.43;;;2.00;;
44646;SDS011;56315;-33.902;151.160;2023-04-12T08:35:51;4.88;;;1.90;;
44646;SDS011;56315;-33.902;151.160;2023-04-12T08:38:18;4.38;;;2.60;;
44646;SDS011;56315;-33.902;151.160;2023-04-12T08:40:45;7.45;;;2.70;;
44646;SDS011;56315;-33.902;151.160;2023-04-12T08:43:13;5.70;;;2.50;;
44646;SDS011;56315;-33.902;151.160;2023-04-12T08:45:42;5.50;;;3.53;;
44646;SDS011;56315;-33.902;151.160;2023-04-12T08:48:10;5.53;;;3.60;;
44646;SDS011;56315;-33.902;151.160;2023-04-12T08:50:38;7.10;;;4.18;;
44646;SDS011;56315;-33.902;151.160;2023-04-12T08:53:09;8.95;;;3.78;;
44646;SDS011;56315;-33.902;151.160;2023-04-12T08:55:36;8.25;;;3.88;;
44646;SDS011;56315;-33.902;151.160;2023-04-12T08:58:04;5.82;;;4.05;;
44646;SDS011;56315;-33.902;151.160;2023-04-12T09:00:34;4.25;;;3.25;;
44646;SDS011;56315;-33.902;151.160;2023-04-12T09:03:02;7.15;;;3.97;;
44646;SDS011;56315;-33.902;151.160;2023-04-12T09:05:31;5.85;;;3.58;;
44646;SDS011;56315;-33.902;151.160;2023-04-12T09:07:58;8.98;;;5.03;;
44646;SDS011;56315;-33.902;151.160;2023-04-12T09:10:32;10.85;;;5.80;;
44646;SDS011;56315;-33.902;151.160;2023-04-12T09:13:02;10.57;;;5.53;;
44646;SDS011;56315;-33.902;151.160;2023-04-12T09:15:32;6.90;;;5.13;;
44646;SDS011;56315;-33.902;151.160;2023-04-12T09:18:07;9.20;;;5.28;;
44646;SDS011;56315;-33.902;151.160;2023-04-12T09:20:36;9.73;;;5.03;;
44646;SDS011;56315;-33.902;151.160;2023-04-12T09:23:20;9.90;;;5.85;;
44646;SDS011;56315;-33.902;151.160;2023-04-12T09:25:51;7.05;;;5.35;;
44646;SDS011;56315;-33.902;151.160;2023-04-12T09:30:47;8.45;;;5.55;;
44646;SDS011;56315;-33.902;151.160;2023-04-12T09:33:18;11.05;;;5.25;;
44646;SDS011;56315;-33.902;151.160;2023-04-12T09:35:48;10.02;;;5.35;;
44646;SDS011;56315;-33.902;151.160;2023-04-12T09:38:24;7.85;;;5.07;;
44646;SDS011;56315;-33.902;151.160;2023-04-12T09:40:52;5.93;;;4.32;;
44646;SDS011;56315;-33.902;151.160;2023-04-12T09:43:34;8.88;;;5.82;;
44646;SDS011;56315;-33.902;151.160;2023-04-12T09:46:09;10.07;;;5.53;;
44646;SDS011;56315;-33.902;151.160;2023-04-12T09:48:41;7.05;;;4.60;;
44646;SDS011;56315;-33.902;151.160;2023-04-12T09:51:25;8.68;;;4.68;;
44646;SDS011;56315;-33.902;151.160;2023-04-12T09:54:00;9.90;;;4.70;;
44646;SDS011;56315;-33.902;151.160;2023-04-12T09:56:32;6.63;;;3.90;;
44646;SDS011;56315;-33.902;151.160;2023-04-12T09:59:04;8.02;;;3.85;;
44646;SDS011;56315;-33.902;151.160;2023-04-12T10:01:34;5.97;;;3.95;;
44646;SDS011;56315;-33.902;151.160;2023-04-12T10:04:06;7.90;;;4.60;;
44646;SDS011;56315;-33.902;151.160;2023-04-12T10:06:34;8.02;;;4.47;;
44646;SDS011;56315;-33.902;151.160;2023-04-12T10:09:02;7.53;;;4.55;;
44646;SDS011;56315;-33.902;151.160;2023-04-12T10:11:31;8.63;;;5.13;;
44646;SDS011;56315;-33.902;151.160;2023-04-12T10:14:03;8.77;;;4.63;;
44646;SDS011;56315;-33.902;151.160;2023-04-12T10:16:34;7.13;;;4.45;;
44646;SDS011;56315;-33.902;151.160;2023-04-12T10:19:04;9.43;;;4.45;;
44646;SDS011;56315;-33.902;151.160;2023-04-12T10:21:34;11.30;;;5.00;;
44646;SDS011;56315;-33.902;151.160;2023-04-12T10:24:01;9.00;;;4.72;;
44646;SDS011;56315;-33.902;151.160;2023-04-12T10:26:30;8.50;;;4.43;;
44646;SDS011;56315;-33.902;151.160;2023-04-12T10:31:55;10.90;;;4.25;;
44646;SDS011;56315;-33.902;151.160;2023-04-12T10:34:43;6.88;;;4.00;;
44646;SDS011;56315;-33.902;151.160;2023-04-12T10:37:15;6.68;;;4.05;;
44646;SDS011;56315;-33.902;151.160;2023-04-12T10:39:43;7.85;;;4.63;;
44646;SDS011;56315;-33.902;151.160;2023-04-12T10:42:18;7.55;;;3.90;;
44646;SDS011;56315;-33.902;151.160;2023-04-12T10:44:55;8.38;;;4.40;;
44646;SDS011;56315;-33.902;151.160;2023-04-12T10:50:24;8.30;;;4.50;;
44646;SDS011;56315;-33.902;151.160;2023-04-12T10:55:46;8.90;;;4.80;;
44646;SDS011;56315;-33.902;151.160;2023-04-12T11:01:14;7.55;;;4.85;;
44646;SDS011;56315;-33.902;151.160;2023-04-12T11:19:44;10.38;;;5.32;;
44646;SDS011;56315;-33.902;151.160;2023-04-12T11:22:12;8.20;;;4.68;;
44646;SDS011;56315;-33.902;151.160;2023-04-12T11:24:44;7.50;;;4.50;;
44646;SDS011;56315;-33.902;151.160;2023-04-12T11:27:22;7.55;;;4.05;;
44646;SDS011;56315;-33.902;151.160;2023-04-12T11:29:51;7.93;;;4.95;;
44646;SDS011;56315;-33.902;151.160;2023-04-12T11:32:21;7.05;;;4.25;;
44646;SDS011;56315;-33.902;151.160;2023-04-12T11:34:51;6.30;;;4.60;;
44646;SDS011;56315;-33.902;151.160;2023-04-12T11:37:21;7.72;;;4.53;;
44646;SDS011;56315;-33.902;151.160;2023-04-12T11:39:50;8.20;;;4.05;;
44646;SDS011;56315;-33.902;151.160;2023-04-12T11:42:23;6.55;;;3.97;;
44646;SDS011;56315;-33.902;151.160;2023-04-12T11:44:54;6.50;;;4.30;;
44646;SDS011;56315;-33.902;151.160;2023-04-12T11:47:22;7.75;;;4.78;;
44646;SDS011;56315;-33.902;151.160;2023-04-12T11:49:51;6.97;;;3.83;;
44646;SDS011;56315;-33.902;151.160;2023-04-12T11:52:29;5.45;;;3.72;;
44646;SDS011;56315;-33.902;151.160;2023-04-12T11:55:01;8.15;;;4.43;;
44646;SDS011;56315;-33.902;151.160;2023-04-12T11:57:31;10.02;;;3.85;;
44646;SDS011;56315;-33.902;151.160;2023-04-12T11:59:59;6.32;;;3.63;;
44646;SDS011;56315;-33.902;151.160;2023-04-12T12:02:31;6.50;;;4.40;;
44646;SDS011;56315;-33.902;151.160;2023-04-12T12:05:00;7.28;;;3.72;;
44646;SDS011;56315;-33.902;151.160;2023-04-12T12:07:27;7.55;;;4.05;;
44646;SDS011;56315;-33.902;151.160;2023-04-12T12:09:55;7.22;;;3.85;;
44646;SDS011;56315;-33.902;151.160;2023-04-12T12:12:23;8.57;;;3.60;;
44646;SDS011;56315;-33.902;151.160;2023-04-12T12:14:50;8.40;;;3.80;;
44646;SDS011;56315;-33.902;151.160;2023-04-12T12:17:17;8.27;;;3.97;;
44646;SDS011;56315;-33.902;151.160;2023-04-12T12:19:45;7.18;;;3.80;;
44646;SDS011;56315;-33.902;151.160;2023-04-12T12:24:44;8.60;;;4.78;;
44646;SDS011;56315;-33.902;151.160;2023-04-12T12:27:21;8.02;;;4.57;;
44646;SDS011;56315;-33.902;151.160;2023-04-12T12:30:02;6.13;;;3.85;;
44646;SDS011;56315;-33.902;151.160;2023-04-12T12:32:33;7.65;;;4.97;;
44646;SDS011;56315;-33.902;151.160;2023-04-12T12:35:11;6.38;;;4.47;;
44646;SDS011;56315;-33.902;151.160;2023-04-12T12:37:48;6.25;;;4.03;;
44646;SDS011;56315;-33.902;151.160;2023-04-12T12:40:17;8.02;;;4.82;;
44646;SDS011;56315;-33.902;151.160;2023-04-12T12:42:54;6.88;;;4.68;;
44646;SDS011;56315;-33.902;151.160;2023-04-12T12:45:22;7.00;;;5.10;;
44646;SDS011;56315;-33.902;151.160;2023-04-12T12:50:24;6.80;;;4.53;;
44646;SDS011;56315;-33.902;151.160;2023-04-12T12:52:52;12.70;;;4.93;;
44646;SDS011;56315;-33.902;151.160;2023-04-12T12:55:21;6.35;;;3.95;;
44646;SDS011;56315;-33.902;151.160;2023-04-12T12:57:53;9.60;;;4.93;;
44646;SDS011;56315;-33.902;151.160;2023-04-12T13:00:22;7.10;;;4.97;;
44646;SDS011;56315;-33.902;151.160;2023-04-12T13:02:52;7.85;;;4.70;;
44646;SDS011;56315;-33.902;151.160;2023-04-12T13:05:20;7.55;;;3.92;;
44646;SDS011;56315;-33.902;151.160;2023-04-12T13:07:47;8.20;;;4.05;;
44646;SDS011;56315;-33.902;151.160;2023-04-12T13:10:15;9.10;;;4.28;;
44646;SDS011;56315;-33.902;151.160;2023-04-12T13:12:42;5.50;;;4.38;;
44646;SDS011;56315;-33.902;151.160;2023-04-12T13:15:10;9.05;;;4.47;;
44646;SDS011;56315;-33.902;151.160;2023-04-12T13:17:38;8.70;;;4.70;;
44646;SDS011;56315;-33.902;151.160;2023-04-12T13:20:06;6.72;;;4.03;;
44646;SDS011;56315;-33.902;151.160;2023-04-12T13:22:34;7.20;;;4.78;;
44646;SDS011;56315;-33.902;151.160;2023-04-12T13:25:01;4.95;;;3.70;;
44646;SDS011;56315;-33.902;151.160;2023-04-12T13:27:28;7.70;;;3.83;;
44646;SDS011;56315;-33.902;151.160;2023-04-12T13:29:56;5.78;;;3.50;;
44646;SDS011;56315;-33.902;151.160;2023-04-12T13:32:23;6.00;;;3.67;;
44646;SDS011;56315;-33.902;151.160;2023-04-12T13:34:50;7.32;;;4.10;;
44646;SDS011;56315;-33.902;151.160;2023-04-12T13:37:18;8.40;;;4.05;;
44646;SDS011;56315;-33.902;151.160;2023-04-12T13:39:45;6.15;;;3.78;;
44646;SDS011;56315;-33.902;151.160;2023-04-12T13:42:12;5.07;;;3.33;;
44646;SDS011;56315;-33.902;151.160;2023-04-12T13:44:39;6.30;;;3.42;;
44646;SDS011;56315;-33.902;151.160;2023-04-12T13:47:07;5.97;;;3.35;;
44646;SDS011;56315;-33.902;151.160;2023-04-12T13:49:35;4.90;;;3.15;;
44646;SDS011;56315;-33.902;151.160;2023-04-12T13:52:03;6.47;;;3.28;;
44646;SDS011;56315;-33.902;151.160;2023-04-12T13:54:30;8.23;;;2.95;;
44646;SDS011;56315;-33.902;151.160;2023-04-12T13:56:58;4.88;;;2.67;;
44646;SDS011;56315;-33.902;151.160;2023-04-12T13:59:25;5.05;;;2.55;;
44646;SDS011;56315;-33.902;151.160;2023-04-12T14:01:52;4.38;;;2.60;;
44646;SDS011;56315;-33.902;151.160;2023-04-12T14:04:20;6.25;;;2.53;;
44646;SDS011;56315;-33.902;151.160;2023-04-12T14:06:47;3.30;;;2.47;;
44646;SDS011;56315;-33.902;151.160;2023-04-12T14:09:25;2.90;;;2.20;;
44646;SDS011;56315;-33.902;151.160;2023-04-12T14:11:57;4.40;;;2.40;;
44646;SDS011;56315;-33.902;151.160;2023-04-12T14:14:26;4.50;;;2.15;;
44646;SDS011;56315;-33.902;151.160;2023-04-12T14:16:54;4.70;;;2.10;;
44646;SDS011;56315;-33.902;151.160;2023-04-12T14:19:22;3.00;;;2.10;;
44646;SDS011;56315;-33.902;151.160;2023-04-12T14:21:50;6.57;;;1.85;;
44646;SDS011;56315;-33.902;151.160;2023-04-12T14:24:17;4.93;;;2.30;;
44646;SDS011;56315;-33.902;151.160;2023-04-12T14:26:46;5.18;;;2.80;;
44646;SDS011;56315;-33.902;151.160;2023-04-12T14:29:17;3.55;;;2.38;;
44646;SDS011;56315;-33.902;151.160;2023-04-12T14:31:45;3.63;;;1.58;;
44646;SDS011;56315;-33.902;151.160;2023-04-12T14:34:13;4.47;;;2.47;;
44646;SDS011;56315;-33.902;151.160;2023-04-12T14:36:40;3.60;;;2.00;;
44646;SDS011;56315;-33.902;151.160;2023-04-12T14:39:08;3.60;;;2.10;;
44646;SDS011;56315;-33.902;151.160;2023-04-12T14:41:36;3.15;;;2.20;;
44646;SDS011;56315;-33.902;151.160;2023-04-12T14:44:03;2.65;;;1.98;;
44646;SDS011;56315;-33.902;151.160;2023-04-12T14:46:31;4.55;;;2.42;;
44646;SDS011;56315;-33.902;151.160;2023-04-12T14:48:58;5.10;;;2.17;;
44646;SDS011;56315;-33.902;151.160;2023-04-12T14:51:26;3.13;;;1.65;;
44646;SDS011;56315;-33.902;151.160;2023-04-12T14:53:54;2.53;;;1.83;;
44646;SDS011;56315;-33.902;151.160;2023-04-12T14:56:22;3.35;;;1.80;;
44646;SDS011;56315;-33.902;151.160;2023-04-12T14:58:54;3.33;;;1.75;;
44646;SDS011;56315;-33.902;151.160;2023-04-12T15:01:21;2.72;;;1.65;;
44646;SDS011;56315;-33.902;151.160;2023-04-12T15:03:53;3.28;;;1.40;;
44646;SDS011;56315;-33.902;151.160;2023-04-12T15:06:23;4.53;;;1.52;;
44646;SDS011;56315;-33.902;151.160;2023-04-12T15:08:51;2.28;;;1.20;;